createdAt,value
2018-10-18T00:00:26.565Z,12.27
2018-10-18T00:01:26.548Z,12.27
2018-10-18T00:02:26.466Z,12.21
2018-10-18T00:03:26.537Z,12.28
2018-10-18T00:04:26.365Z,12.25
2018-10-18T00:05:26.317Z,12.28
2018-10-18T00:06:26.304Z,12.35
2018-10-18T00:07:26.217Z,12.29
2018-10-18T00:08:26.176Z,12.25
2018-10-18T00:09:26.116Z,12.25
2018-10-18T00:10:26.069Z,12.31
2018-10-18T00:11:26.052Z,12.28
2018-10-18T00:12:25.968Z,12.25
2018-10-18T00:13:25.918Z,12.17
2018-10-18T00:14:25.881Z,12.27
2018-10-18T00:15:25.820Z,12.15
2018-10-18T00:16:25.809Z,12.15
2018-10-18T00:17:25.721Z,12.17
2018-10-18T00:18:25.671Z,12.09
2018-10-18T00:19:25.638Z,11.99
2018-10-18T00:20:25.574Z,12.03
2018-10-18T00:21:25.564Z,11.99
2018-10-18T00:22:25.484Z,12.04
2018-10-18T00:23:25.422Z,12.00
2018-10-18T00:24:25.372Z,11.95
2018-10-18T00:25:25.329Z,11.94
2018-10-18T00:26:25.305Z,11.91
2018-10-18T00:27:25.225Z,11.87
2018-10-18T00:28:25.205Z,11.84
2018-10-18T00:29:25.151Z,11.88
2018-10-18T00:30:25.076Z,11.81
2018-10-18T00:31:25.029Z,11.81
2018-10-18T00:32:25.009Z,11.86
2018-10-18T00:33:24.925Z,11.86
2018-10-18T00:34:24.875Z,11.88
2018-10-18T00:35:24.825Z,11.84
2018-10-18T00:36:24.781Z,11.84
2018-10-18T00:37:24.759Z,11.87
2018-10-18T00:38:24.683Z,11.91
2018-10-18T00:39:24.626Z,11.88
2018-10-18T00:40:24.577Z,11.87
2018-10-18T00:41:24.527Z,11.90
2018-10-18T00:42:24.521Z,11.95
2018-10-18T00:43:24.435Z,11.90
2018-10-18T00:44:24.376Z,11.87
2018-10-18T00:45:24.328Z,11.88
2018-10-18T00:46:24.279Z,11.91
2018-10-18T00:47:24.259Z,11.78
2018-10-18T00:48:24.176Z,11.83
2018-10-18T00:49:24.128Z,11.87
2018-10-18T00:50:24.076Z,11.87
2018-10-18T00:51:24.028Z,11.91
2018-10-18T00:52:24.010Z,11.91
2018-10-18T00:53:23.930Z,11.94
2018-10-18T00:54:23.878Z,11.91
2018-10-18T00:55:23.860Z,11.91
2018-10-18T00:56:23.782Z,11.90
2018-10-18T00:57:23.732Z,11.95
2018-10-18T00:58:23.679Z,11.90
2018-10-18T00:59:23.629Z,11.87
2018-10-18T01:00:23.622Z,11.94
2018-10-18T01:01:23.526Z,11.88
2018-10-18T01:02:23.496Z,11.91
2018-10-18T01:03:23.432Z,11.88
2018-10-18T01:04:23.378Z,11.87
2018-10-18T01:05:23.362Z,11.88
2018-10-18T01:06:23.278Z,11.72
2018-10-18T01:07:23.236Z,11.84
2018-10-18T01:08:23.215Z,11.75
2018-10-18T01:09:23.127Z,11.87
2018-10-18T01:10:23.079Z,11.81
2018-10-18T01:11:23.032Z,11.80
2018-10-18T01:12:23.070Z,11.80
2018-10-18T01:13:22.965Z,11.78
2018-10-18T01:14:22.904Z,11.69
2018-10-18T01:15:22.834Z,11.70
2018-10-18T01:16:22.814Z,11.70
2018-10-18T01:17:22.729Z,11.69
2018-10-18T01:18:22.679Z,11.68
2018-10-18T01:19:22.631Z,11.63
2018-10-18T01:20:22.583Z,11.62
2018-10-18T01:21:22.567Z,11.60
2018-10-18T01:22:22.481Z,11.50
2018-10-18T01:23:22.429Z,11.44
2018-10-18T01:24:22.382Z,11.50
2018-10-18T01:25:22.330Z,11.41
2018-10-18T01:26:22.409Z,11.43
2018-10-18T01:27:22.229Z,11.44
2018-10-18T01:28:22.179Z,11.52
2018-10-18T01:29:22.132Z,11.48
2018-10-18T01:30:22.084Z,11.44
2018-10-18T01:31:22.075Z,11.48
2018-10-18T01:32:21.981Z,11.44
2018-10-18T01:33:21.928Z,11.44
2018-10-18T01:34:21.881Z,11.45
2018-10-18T01:35:21.832Z,11.43
2018-10-18T01:36:21.814Z,11.45
2018-10-18T01:37:21.763Z,11.35
2018-10-18T01:38:21.711Z,11.41
2018-10-18T01:39:21.632Z,11.36
2018-10-18T01:40:21.609Z,11.37
2018-10-18T01:41:21.529Z,11.40
2018-10-18T01:42:21.483Z,11.40
2018-10-18T01:43:21.428Z,11.36
2018-10-18T01:44:21.407Z,11.32
2018-10-18T01:45:21.326Z,11.30
2018-10-18T01:46:21.278Z,11.25
2018-10-18T01:47:21.230Z,11.22
2018-10-18T01:48:21.180Z,11.23
2018-10-18T01:49:21.163Z,11.17
2018-10-18T01:50:21.079Z,11.17
2018-10-18T01:51:21.026Z,11.10
2018-10-18T01:52:20.982Z,11.18
2018-10-18T01:53:20.931Z,11.12
2018-10-18T01:54:20.915Z,11.02
2018-10-18T01:55:20.833Z,11.04
2018-10-18T01:56:20.773Z,11.04
2018-10-18T01:57:20.728Z,11.00
2018-10-18T01:58:20.713Z,10.93
2018-10-18T01:59:20.624Z,10.89
2018-10-18T02:00:20.670Z,10.94
2018-10-18T02:01:20.525Z,10.99
2018-10-18T02:02:20.479Z,11.05
2018-10-18T02:03:20.455Z,11.04
2018-10-18T02:04:20.374Z,11.12
2018-10-18T02:05:20.323Z,11.05
2018-10-18T02:06:20.270Z,11.08
2018-10-18T02:07:20.227Z,11.08
2018-10-18T02:08:20.208Z,11.05
2018-10-18T02:09:20.123Z,11.15
2018-10-18T02:10:20.072Z,11.11
2018-10-18T02:11:20.025Z,11.05
2018-10-18T02:12:19.967Z,11.08
2018-10-18T02:13:19.949Z,11.00
2018-10-18T02:14:19.902Z,11.05
2018-10-18T02:15:19.817Z,10.92
2018-10-18T02:16:19.779Z,10.96
2018-10-18T02:17:19.715Z,10.93
2018-10-18T02:18:19.791Z,10.96
2018-10-18T02:19:20.112Z,10.94
2018-10-18T02:20:19.564Z,10.87
2018-10-18T02:21:19.514Z,10.90
2018-10-18T02:22:19.462Z,10.92
2018-10-18T02:23:19.417Z,10.89
2018-10-18T02:24:19.394Z,10.93
2018-10-18T02:25:19.415Z,10.87
2018-10-18T02:26:19.261Z,10.93
2018-10-18T02:27:19.252Z,10.96
2018-10-18T02:28:19.175Z,10.92
2018-10-18T02:29:19.111Z,10.90
2018-10-18T02:30:19.194Z,10.99
2018-10-18T02:31:19.009Z,10.93
2018-10-18T02:32:19.089Z,11.02
2018-10-18T02:33:18.909Z,10.94
2018-10-18T02:34:18.858Z,10.97
2018-10-18T02:35:18.810Z,10.99
2018-10-18T02:36:18.903Z,10.92
2018-10-18T02:37:18.744Z,10.86
2018-10-18T02:38:18.698Z,10.82
2018-10-18T02:39:18.630Z,10.82
2018-10-18T02:40:18.562Z,10.90
2018-10-18T02:41:18.546Z,10.81
2018-10-18T02:42:18.570Z,10.81
2018-10-18T02:43:18.474Z,10.87
2018-10-18T02:44:18.358Z,10.87
2018-10-18T02:45:18.306Z,10.92
2018-10-18T02:46:18.250Z,10.87
2018-10-18T02:47:18.204Z,10.90
2018-10-18T02:48:18.229Z,10.89
2018-10-18T02:49:18.099Z,10.82
2018-10-18T02:50:18.047Z,10.87
2018-10-18T02:51:17.999Z,10.86
2018-10-18T02:52:17.981Z,10.87
2018-10-18T02:53:17.897Z,10.74
2018-10-18T02:54:17.966Z,10.78
2018-10-18T02:55:17.799Z,10.76
2018-10-18T02:56:17.742Z,10.76
2018-10-18T02:57:17.696Z,10.76
2018-10-18T02:58:17.647Z,10.72
2018-10-18T02:59:17.641Z,10.75
2018-10-18T03:00:17.695Z,10.71
2018-10-18T03:01:17.496Z,10.68
2018-10-18T03:02:17.449Z,10.69
2018-10-18T03:03:17.396Z,10.71
2018-10-18T03:04:17.371Z,10.61
2018-10-18T03:05:17.291Z,10.61
2018-10-18T03:06:17.359Z,10.63
2018-10-18T03:07:17.217Z,10.64
2018-10-18T03:08:17.175Z,10.61
2018-10-18T03:09:17.087Z,10.61
2018-10-18T03:10:17.080Z,10.61
2018-10-18T03:11:16.987Z,10.61
2018-10-18T03:12:16.997Z,10.67
2018-10-18T03:13:16.892Z,10.64
2018-10-18T03:14:16.837Z,10.71
2018-10-18T03:15:16.820Z,10.61
2018-10-18T03:16:16.768Z,10.60
2018-10-18T03:17:16.685Z,10.68
2018-10-18T03:18:16.713Z,10.67
2018-10-18T03:19:16.579Z,10.60
2018-10-18T03:20:16.532Z,10.67
2018-10-18T03:21:16.517Z,10.72
2018-10-18T03:22:16.425Z,10.69
2018-10-18T03:23:16.386Z,10.63
2018-10-18T03:24:16.337Z,10.64
2018-10-18T03:25:16.278Z,10.61
2018-10-18T03:26:16.253Z,10.59
2018-10-18T03:27:16.173Z,10.67
2018-10-18T03:28:16.157Z,10.67
2018-10-18T03:29:16.069Z,10.61
2018-10-18T03:30:16.147Z,10.61
2018-10-18T03:31:15.970Z,10.63
2018-10-18T03:32:15.945Z,10.60
2018-10-18T03:33:15.870Z,10.64
2018-10-18T03:34:15.821Z,10.61
2018-10-18T03:35:15.832Z,10.68
2018-10-18T03:36:15.823Z,10.69
2018-10-18T03:37:15.665Z,10.64
2018-10-18T03:38:15.642Z,10.64
2018-10-18T03:39:15.572Z,10.68
2018-10-18T03:40:15.512Z,10.61
2018-10-18T03:41:15.518Z,10.71
2018-10-18T03:42:15.585Z,10.64
2018-10-18T03:43:15.361Z,10.63
2018-10-18T03:44:15.314Z,10.67
2018-10-18T03:45:15.255Z,10.63
2018-10-18T03:46:15.235Z,10.60
2018-10-18T03:47:15.191Z,10.64
2018-10-18T03:48:15.118Z,10.64
2018-10-18T03:49:15.058Z,10.61
2018-10-18T03:50:15.009Z,10.60
2018-10-18T03:51:14.966Z,10.68
2018-10-18T03:52:14.945Z,10.64
2018-10-18T03:53:14.858Z,10.59
2018-10-18T03:54:14.839Z,10.64
2018-10-18T03:55:14.751Z,10.60
2018-10-18T03:56:14.699Z,10.68
2018-10-18T03:57:14.686Z,10.61
2018-10-18T03:58:14.595Z,10.54
2018-10-18T03:59:14.553Z,10.68
2018-10-18T04:00:14.583Z,10.54
2018-10-18T04:01:14.442Z,10.54
2018-10-18T04:02:14.454Z,10.54
2018-10-18T04:03:14.345Z,10.60
2018-10-18T04:04:14.292Z,10.56
2018-10-18T04:05:14.245Z,10.63
2018-10-18T04:06:14.309Z,10.60
2018-10-18T04:07:14.172Z,10.53
2018-10-18T04:08:14.085Z,10.53
2018-10-18T04:09:14.078Z,10.49
2018-10-18T04:10:13.996Z,10.46
2018-10-18T04:11:13.977Z,10.53
2018-10-18T04:12:13.956Z,10.57
2018-10-18T04:13:13.889Z,10.49
2018-10-18T04:14:13.819Z,10.53
2018-10-18T04:15:13.731Z,10.51
2018-10-18T04:16:13.679Z,10.56
2018-10-18T04:17:13.635Z,10.53
2018-10-18T04:18:13.592Z,10.51
2018-10-18T04:19:13.572Z,10.51
2018-10-18T04:20:13.476Z,10.35
2018-10-18T04:21:13.431Z,10.42
2018-10-18T04:22:13.377Z,10.40
2018-10-18T04:23:13.326Z,10.38
2018-10-18T04:24:13.387Z,10.42
2018-10-18T04:25:13.227Z,10.31
2018-10-18T04:26:13.177Z,10.28
2018-10-18T04:27:13.121Z,10.22
2018-10-18T04:28:13.068Z,10.31
2018-10-18T04:29:13.052Z,10.28
2018-10-18T04:30:13.042Z,10.30
2018-10-18T04:31:12.961Z,10.28
2018-10-18T04:32:12.865Z,10.38
2018-10-18T04:33:12.815Z,10.26
2018-10-18T04:34:12.764Z,10.28
2018-10-18T04:35:12.710Z,10.28
2018-10-18T04:36:12.807Z,10.31
2018-10-18T04:37:12.616Z,10.23
2018-10-18T04:38:12.560Z,10.26
2018-10-18T04:39:12.507Z,10.31
2018-10-18T04:40:12.457Z,10.22
2018-10-18T04:41:12.444Z,10.19
2018-10-18T04:42:12.442Z,10.17
2018-10-18T04:43:12.303Z,10.10
2018-10-18T04:44:12.256Z,10.05
2018-10-18T04:45:12.203Z,10.05
2018-10-18T04:46:12.184Z,10.13
2018-10-18T04:47:12.188Z,9.99
2018-10-18T04:48:12.101Z,10.04
2018-10-18T04:49:11.999Z,9.97
2018-10-18T04:50:11.984Z,9.87
2018-10-18T04:51:11.895Z,9.84
2018-10-18T04:52:11.862Z,9.91
2018-10-18T04:53:11.801Z,9.95
2018-10-18T04:54:11.741Z,9.83
2018-10-18T04:55:11.752Z,9.92
2018-10-18T04:56:11.645Z,9.92
2018-10-18T04:57:11.592Z,9.92
2018-10-18T04:58:11.536Z,9.87
2018-10-18T04:59:11.485Z,9.91
2018-10-18T05:00:11.474Z,9.95
2018-10-18T05:01:11.483Z,10.02
2018-10-18T05:02:11.332Z,9.92
2018-10-18T05:03:11.279Z,9.87
2018-10-18T05:04:11.230Z,9.95
2018-10-18T05:05:11.212Z,9.98
2018-10-18T05:06:11.164Z,9.87
2018-10-18T05:07:11.093Z,9.97
2018-10-18T05:08:11.022Z,9.97
2018-10-18T05:09:10.977Z,9.99
2018-10-18T05:10:10.924Z,10.04
2018-10-18T05:11:10.987Z,10.04
2018-10-18T05:12:10.818Z,10.02
2018-10-18T05:13:10.853Z,10.02
2018-10-18T05:14:10.722Z,9.97
2018-10-18T05:15:10.668Z,9.86
2018-10-18T05:16:10.659Z,9.73
2018-10-18T05:17:10.562Z,9.73
2018-10-18T05:18:10.510Z,9.68
2018-10-18T05:19:10.565Z,9.66
2018-10-18T05:20:10.409Z,9.59
2018-10-18T05:21:10.390Z,9.58
2018-10-18T05:22:10.315Z,9.58
2018-10-18T05:23:10.257Z,9.59
2018-10-18T05:24:10.213Z,9.73
2018-10-18T05:25:10.262Z,9.65
2018-10-18T05:26:10.154Z,9.65
2018-10-18T05:27:10.051Z,9.66
2018-10-18T05:28:09.996Z,9.72
2018-10-18T05:29:09.962Z,9.69
2018-10-18T05:30:09.899Z,9.68
2018-10-18T05:31:09.975Z,9.72
2018-10-18T05:32:09.792Z,9.72
2018-10-18T05:33:09.784Z,9.61
2018-10-18T05:34:09.689Z,9.58
2018-10-18T05:35:09.636Z,9.59
2018-10-18T05:36:09.598Z,9.56
2018-10-18T05:37:09.621Z,9.56
2018-10-18T05:38:09.516Z,9.55
2018-10-18T05:39:09.432Z,9.56
2018-10-18T05:40:09.385Z,9.65
2018-10-18T05:41:09.327Z,9.62
2018-10-18T05:42:09.310Z,9.65
2018-10-18T05:43:09.387Z,9.61
2018-10-18T05:44:09.205Z,9.61
2018-10-18T05:45:09.128Z,9.65
2018-10-18T05:46:09.073Z,9.72
2018-10-18T05:47:09.066Z,9.68
2018-10-18T05:48:08.967Z,9.61
2018-10-18T05:49:08.942Z,9.66
2018-10-18T05:50:08.866Z,9.61
2018-10-18T05:51:08.841Z,9.61
2018-10-18T05:52:08.814Z,9.69
2018-10-18T05:53:08.790Z,9.69
2018-10-18T05:54:08.670Z,9.62
2018-10-18T05:55:08.652Z,9.64
2018-10-18T05:56:08.558Z,9.59
2018-10-18T05:57:08.554Z,9.59
2018-10-18T05:58:08.463Z,9.54
2018-10-18T05:59:08.405Z,9.47
2018-10-18T06:00:08.429Z,9.58
2018-10-18T06:01:08.374Z,9.55
2018-10-18T06:02:08.291Z,9.47
2018-10-18T06:03:08.225Z,9.47
2018-10-18T06:04:08.141Z,9.50
2018-10-18T06:05:08.099Z,9.51
2018-10-18T06:06:08.044Z,9.56
2018-10-18T06:07:08.167Z,9.40
2018-10-18T06:08:07.948Z,9.41
2018-10-18T06:09:07.901Z,9.47
2018-10-18T06:10:07.875Z,9.40
2018-10-18T06:11:07.816Z,9.32
2018-10-18T06:12:07.808Z,9.32
2018-10-18T06:13:07.831Z,9.39
2018-10-18T06:14:07.630Z,9.36
2018-10-18T06:15:07.573Z,9.26
2018-10-18T06:16:07.521Z,9.32
2018-10-18T06:17:07.508Z,9.34
2018-10-18T06:18:07.428Z,9.41
2018-10-18T06:19:07.451Z,9.34
2018-10-18T06:20:07.318Z,9.36
2018-10-18T06:21:07.267Z,9.43
2018-10-18T06:22:07.259Z,9.34
2018-10-18T06:23:07.184Z,9.37
2018-10-18T06:24:07.110Z,9.37
2018-10-18T06:25:07.106Z,9.43
2018-10-18T06:26:07.005Z,9.44
2018-10-18T06:27:06.992Z,9.37
2018-10-18T06:28:06.911Z,9.54
2018-10-18T06:29:06.918Z,9.48
2018-10-18T06:30:06.799Z,9.46
2018-10-18T06:31:06.859Z,9.48
2018-10-18T06:32:06.699Z,9.50
2018-10-18T06:33:06.728Z,9.54
2018-10-18T06:34:06.590Z,9.50
2018-10-18T06:35:06.595Z,9.55
2018-10-18T06:36:06.491Z,9.50
2018-10-18T06:37:06.517Z,9.54
2018-10-18T06:38:06.389Z,9.46
2018-10-18T06:39:06.390Z,9.51
2018-10-18T06:40:06.318Z,9.55
2018-10-18T06:41:06.331Z,9.48
2018-10-18T06:42:06.182Z,9.36
2018-10-18T06:43:06.268Z,9.41
2018-10-18T06:44:06.087Z,9.44
2018-10-18T06:45:06.071Z,9.44
2018-10-18T06:46:05.974Z,9.44
2018-10-18T06:47:05.964Z,9.51
2018-10-18T06:48:05.984Z,9.47
2018-10-18T06:49:05.929Z,9.51
2018-10-18T06:50:05.793Z,9.62
2018-10-18T06:51:05.713Z,9.66
2018-10-18T06:52:05.660Z,9.64
2018-10-18T06:53:05.620Z,9.69
2018-10-18T06:54:05.603Z,9.73
2018-10-18T06:55:05.556Z,9.74
2018-10-18T06:56:05.454Z,9.79
2018-10-18T06:57:05.398Z,9.86
2018-10-18T06:58:05.379Z,9.87
2018-10-18T06:59:05.327Z,9.94
2018-10-18T07:00:05.335Z,9.92
2018-10-18T07:01:05.192Z,9.95
2018-10-18T07:02:05.145Z,9.97
2018-10-18T07:03:05.097Z,9.92
2018-10-18T07:04:05.037Z,9.97
2018-10-18T07:05:05.026Z,10.10
2018-10-18T07:06:04.942Z,10.05
2018-10-18T07:07:04.882Z,10.07
2018-10-18T07:08:04.830Z,10.12
2018-10-18T07:09:04.788Z,10.05
2018-10-18T07:10:04.765Z,10.09
2018-10-18T07:11:04.787Z,10.12
2018-10-18T07:12:04.677Z,10.04
2018-10-18T07:13:04.575Z,10.09
2018-10-18T07:14:04.533Z,10.01
2018-10-18T07:15:04.541Z,10.01
2018-10-18T07:16:04.423Z,10.05
2018-10-18T07:17:04.372Z,10.02
2018-10-18T07:18:04.362Z,10.07
2018-10-18T07:19:04.263Z,10.15
2018-10-18T07:20:04.244Z,10.22
2018-10-18T07:21:04.166Z,10.16
2018-10-18T07:22:04.113Z,10.19
2018-10-18T07:23:04.059Z,10.26
2018-10-18T07:24:04.054Z,10.30
2018-10-18T07:25:04.046Z,10.34
2018-10-18T07:26:03.903Z,10.28
2018-10-18T07:27:03.850Z,10.38
2018-10-18T07:28:03.818Z,10.40
2018-10-18T07:29:03.753Z,10.40
2018-10-18T07:30:03.795Z,10.42
2018-10-18T07:31:03.642Z,10.46
2018-10-18T07:32:03.602Z,10.48
2018-10-18T07:33:03.542Z,10.48
2018-10-18T07:34:03.491Z,10.48
2018-10-18T07:35:03.531Z,10.54
2018-10-18T07:36:03.449Z,10.54
2018-10-18T07:37:03.341Z,10.49
2018-10-18T07:38:03.288Z,10.64
2018-10-18T07:39:03.233Z,10.61
2018-10-18T07:40:03.219Z,10.76
2018-10-18T07:41:03.158Z,10.76
2018-10-18T07:42:03.133Z,10.78
2018-10-18T07:43:03.061Z,10.86
2018-10-18T07:44:02.979Z,10.92
2018-10-18T07:45:02.924Z,11.00
2018-10-18T07:46:02.878Z,11.08
2018-10-18T07:47:02.979Z,11.10
2018-10-18T07:48:02.829Z,11.17
2018-10-18T07:49:02.721Z,11.22
2018-10-18T07:50:02.673Z,11.25
2018-10-18T07:51:02.622Z,11.25
2018-10-18T07:52:02.605Z,11.29
2018-10-18T07:53:02.621Z,11.25
2018-10-18T07:54:02.523Z,11.32
2018-10-18T07:55:02.420Z,11.23
2018-10-18T07:56:02.382Z,11.27
2018-10-18T07:57:02.349Z,11.32
2018-10-18T07:58:02.265Z,11.30
2018-10-18T07:59:02.212Z,11.33
2018-10-18T08:00:02.270Z,11.23
2018-10-18T08:01:02.116Z,11.32
2018-10-18T08:02:02.093Z,11.27
2018-10-18T08:03:02.011Z,11.35
2018-10-18T08:04:01.958Z,11.36
2018-10-18T08:05:01.908Z,11.33
2018-10-18T08:06:01.856Z,11.47
2018-10-18T08:07:01.882Z,11.43
2018-10-18T08:08:01.784Z,11.44
2018-10-18T08:09:01.704Z,11.45
2018-10-18T08:10:01.716Z,11.59
2018-10-18T08:11:01.627Z,11.66
2018-10-18T08:12:01.549Z,11.69
2018-10-18T08:13:01.554Z,11.69
2018-10-18T08:14:01.456Z,11.69
2018-10-18T08:15:01.402Z,11.75
2018-10-18T08:16:01.345Z,11.75
2018-10-18T08:17:01.448Z,11.78
2018-10-18T08:18:01.280Z,11.88
2018-10-18T08:19:01.250Z,11.90
2018-10-18T08:20:01.148Z,11.88
2018-10-18T08:21:01.092Z,12.02
2018-10-18T08:22:01.042Z,12.09
2018-10-18T08:23:01.024Z,11.99
2018-10-18T08:24:00.945Z,12.15
2018-10-18T08:25:00.917Z,12.17
2018-10-18T08:26:00.885Z,12.22
2018-10-18T08:27:00.791Z,12.25
2018-10-18T08:28:00.743Z,12.27
2018-10-18T08:29:00.696Z,12.37
2018-10-18T08:30:00.645Z,12.29
2018-10-18T08:31:00.654Z,12.40
2018-10-18T08:32:00.544Z,12.45
2018-10-18T08:33:00.519Z,12.35
2018-10-18T08:34:00.444Z,12.40
2018-10-18T08:35:00.388Z,12.32
2018-10-18T08:36:00.338Z,12.42
2018-10-18T08:37:00.338Z,12.45
2018-10-18T08:38:00.420Z,12.64
2018-10-18T08:39:00.186Z,12.64
2018-10-18T08:40:00.138Z,12.68
2018-10-18T08:41:00.118Z,12.82
2018-10-18T08:42:00.037Z,12.83
2018-10-18T08:43:00.055Z,12.82
2018-10-18T08:43:59.951Z,12.83
2018-10-18T08:44:59.890Z,12.85
2018-10-18T08:45:59.838Z,12.80
2018-10-18T08:46:59.793Z,12.91
2018-10-18T08:47:59.766Z,12.94
2018-10-18T08:48:59.712Z,12.95
2018-10-18T08:49:59.816Z,13.09
2018-10-18T08:50:59.621Z,13.05
2018-10-18T08:51:59.541Z,13.03
2018-10-18T08:52:59.485Z,13.30
2018-10-18T08:53:59.435Z,13.33
2018-10-18T08:54:59.419Z,13.50
2018-10-18T08:55:59.376Z,13.52
2018-10-18T08:56:59.303Z,13.57
2018-10-18T08:57:59.251Z,13.68
2018-10-18T08:58:59.196Z,13.75
2018-10-18T08:59:59.140Z,13.79
2018-10-18T09:00:59.175Z,13.85
2018-10-18T09:01:59.040Z,13.85
2018-10-18T09:02:58.997Z,14.03
2018-10-18T09:03:58.939Z,14.12
2018-10-18T09:04:58.894Z,14.25
2018-10-18T09:05:58.883Z,14.29
2018-10-18T09:06:58.824Z,14.35
2018-10-18T09:07:58.741Z,14.47
2018-10-18T09:08:58.708Z,14.47
2018-10-18T09:09:58.644Z,14.53
2018-10-18T09:10:58.631Z,14.55
2018-10-18T09:11:58.546Z,14.59
2018-10-18T09:12:58.509Z,14.47
2018-10-18T09:13:58.448Z,14.55
2018-10-18T09:14:58.425Z,14.48
2018-10-18T09:15:58.478Z,14.44
2018-10-18T09:16:58.304Z,14.35
2018-10-18T09:17:58.256Z,14.36
2018-10-18T09:18:58.219Z,14.41
2018-10-18T09:19:58.164Z,14.47
2018-10-18T09:20:58.151Z,14.48
2018-10-18T09:21:58.064Z,14.55
2018-10-18T09:22:58.015Z,14.53
2018-10-18T09:23:58.067Z,14.51
2018-10-18T09:24:57.923Z,14.47
2018-10-18T09:25:57.906Z,14.48
2018-10-18T09:26:57.825Z,14.51
2018-10-18T09:27:57.769Z,14.47
2018-10-18T09:28:57.718Z,14.58
2018-10-18T09:29:57.705Z,14.53
2018-10-18T09:30:57.625Z,14.58
2018-10-18T09:31:57.604Z,14.78
2018-10-18T09:32:57.529Z,14.72
2018-10-18T09:33:57.482Z,14.77
2018-10-18T09:34:57.459Z,14.81
2018-10-18T09:35:57.380Z,14.85
2018-10-18T09:36:57.336Z,14.68
2018-10-18T09:37:57.283Z,14.81
2018-10-18T09:38:57.241Z,14.88
2018-10-18T09:39:57.224Z,14.89
2018-10-18T09:40:57.138Z,14.96
2018-10-18T09:41:57.090Z,15.02
2018-10-18T09:42:57.075Z,15.15
2018-10-18T09:43:56.993Z,15.19
2018-10-18T09:44:57.051Z,15.15
2018-10-18T09:45:56.902Z,15.22
2018-10-18T09:46:56.848Z,15.24
2018-10-18T09:47:56.798Z,15.29
2018-10-18T09:48:56.823Z,15.40
2018-10-18T09:49:56.703Z,15.39
2018-10-18T09:50:56.746Z,15.40
2018-10-18T09:51:56.609Z,15.37
2018-10-18T09:52:56.566Z,15.51
2018-10-18T09:53:56.544Z,15.65
2018-10-18T09:54:56.497Z,15.61
2018-10-18T09:55:56.453Z,15.59
2018-10-18T09:56:56.369Z,15.61
2018-10-18T09:57:56.325Z,15.54
2018-10-18T09:58:56.307Z,15.68
2018-10-18T09:59:56.226Z,15.58
2018-10-18T10:00:56.249Z,15.57
2018-10-18T10:01:56.131Z,15.55
2018-10-18T10:02:56.126Z,15.54
2018-10-18T10:03:56.037Z,15.62
2018-10-18T10:04:56.021Z,15.64
2018-10-18T10:05:55.977Z,15.59
2018-10-18T10:06:55.934Z,15.64
2018-10-18T10:07:55.850Z,15.70
2018-10-18T10:08:55.844Z,15.75
2018-10-18T10:09:55.782Z,15.76
2018-10-18T10:10:55.715Z,15.62
2018-10-18T10:11:55.661Z,15.70
2018-10-18T10:12:55.655Z,15.70
2018-10-18T10:13:55.558Z,15.61
2018-10-18T10:14:55.560Z,15.62
2018-10-18T10:15:55.482Z,15.62
2018-10-18T10:16:55.416Z,15.67
2018-10-18T10:17:55.373Z,15.67
2018-10-18T10:18:55.337Z,15.59
2018-10-18T10:19:55.328Z,15.72
2018-10-18T10:20:55.232Z,15.79
2018-10-18T10:21:55.179Z,15.76
2018-10-18T10:22:55.136Z,15.79
2018-10-18T10:23:55.085Z,15.72
2018-10-18T10:24:55.079Z,15.91
2018-10-18T10:25:55.013Z,16.12
2018-10-18T10:26:54.943Z,16.09
2018-10-18T10:27:54.892Z,16.13
2018-10-18T10:28:54.846Z,16.26
2018-10-18T10:29:54.839Z,16.28
2018-10-18T10:30:54.789Z,16.39
2018-10-18T10:31:54.705Z,16.33
2018-10-18T10:32:54.732Z,16.41
2018-10-18T10:33:54.609Z,16.51
2018-10-18T10:34:54.616Z,16.75
2018-10-18T10:35:54.559Z,16.75
2018-10-18T10:36:54.484Z,16.86
2018-10-18T10:37:54.428Z,16.94
2018-10-18T10:38:54.427Z,16.99
2018-10-18T10:39:54.336Z,17.14
2018-10-18T10:40:54.323Z,17.36
2018-10-18T10:41:54.288Z,17.76
2018-10-18T10:42:54.283Z,18.05
2018-10-18T10:43:54.144Z,18.49
2018-10-18T10:44:54.110Z,18.77
2018-10-18T10:45:54.166Z,19.07
2018-10-18T10:46:54.002Z,19.34
2018-10-18T10:47:54.036Z,19.69
2018-10-18T10:48:53.959Z,19.89
2018-10-18T10:49:53.867Z,20.21
2018-10-18T10:50:53.822Z,20.37
2018-10-18T10:51:53.872Z,20.59
2018-10-18T10:52:53.731Z,20.77
2018-10-18T10:53:53.690Z,20.75
2018-10-18T10:54:53.641Z,20.93
2018-10-18T10:55:53.625Z,20.99
2018-10-18T10:56:53.633Z,21.00
2018-10-18T10:57:53.535Z,21.07
2018-10-18T10:58:53.505Z,21.14
2018-10-18T10:59:53.419Z,21.11
2018-10-18T11:00:53.374Z,20.97
2018-10-18T11:01:53.393Z,21.00
2018-10-18T11:02:53.342Z,20.97
2018-10-18T11:03:53.245Z,21.00
2018-10-18T11:04:53.198Z,21.00
2018-10-18T11:05:53.184Z,21.06
2018-10-18T11:06:53.239Z,21.20
2018-10-18T11:07:53.077Z,21.25
2018-10-18T11:15:00.467Z,21.70
2018-10-18T11:16:00.415Z,21.69
2018-10-18T11:17:00.372Z,21.52
2018-10-18T11:18:00.399Z,21.42
2018-10-18T11:19:00.288Z,21.24
2018-10-18T11:20:00.292Z,21.06
2018-10-18T11:21:00.228Z,20.93
2018-10-18T11:22:00.200Z,20.58
2018-10-18T11:23:00.118Z,20.47
2018-10-18T11:24:00.129Z,20.37
2018-10-18T11:25:00.060Z,20.32
2018-10-18T11:25:59.990Z,20.29
2018-10-18T11:27:00.009Z,20.39
2018-10-18T11:27:59.903Z,20.39
2018-10-18T11:28:59.862Z,20.51
2018-10-18T11:29:59.868Z,20.58
2018-10-18T11:30:59.774Z,20.80
2018-10-18T11:31:59.811Z,21.00
2018-10-18T11:32:59.737Z,21.14
2018-10-18T11:33:59.646Z,21.15
2018-10-18T11:34:59.634Z,21.24
2018-10-18T11:35:59.590Z,21.18
2018-10-18T11:36:59.555Z,21.21
2018-10-18T11:37:59.489Z,21.18
2018-10-18T11:38:59.431Z,21.02
2018-10-18T11:39:59.385Z,20.97
2018-10-18T11:40:59.354Z,21.20
2018-10-18T11:41:59.382Z,21.29
2018-10-18T11:42:59.258Z,21.24
2018-10-18T11:43:59.225Z,21.40
2018-10-18T11:44:59.177Z,21.36
2018-10-18T11:45:59.133Z,21.39
2018-10-18T11:46:59.119Z,21.64
2018-10-18T11:47:59.073Z,21.70
2018-10-18T11:48:59.001Z,21.62
2018-10-18T11:49:59.005Z,21.60
2018-10-18T11:50:58.917Z,21.55
2018-10-18T11:51:58.966Z,21.50
2018-10-18T11:52:58.834Z,21.39
2018-10-18T11:53:58.884Z,21.48
2018-10-18T11:54:58.744Z,21.36
2018-10-18T11:55:58.752Z,21.36
2018-10-18T11:56:58.716Z,21.27
2018-10-18T11:57:58.622Z,21.14
2018-10-18T11:58:58.635Z,21.12
2018-10-18T11:59:58.537Z,20.92
2018-10-18T12:00:58.490Z,20.92
2018-10-18T12:01:58.509Z,20.85
2018-10-18T12:02:58.409Z,20.60
2018-10-18T12:03:58.496Z,20.63
2018-10-18T12:04:58.326Z,20.62
2018-10-18T12:05:58.282Z,20.63
2018-10-18T12:06:58.231Z,20.78
2018-10-18T12:07:58.254Z,20.88
2018-10-18T12:08:58.188Z,21.00
2018-10-18T12:09:58.142Z,21.24
2018-10-18T12:10:58.098Z,21.17
2018-10-18T12:11:58.019Z,21.37
2018-10-18T12:12:57.978Z,21.43
2018-10-18T12:13:57.938Z,21.45
2018-10-18T12:14:57.942Z,21.48
2018-10-18T12:15:57.851Z,21.55
2018-10-18T12:16:57.819Z,21.76
2018-10-18T12:17:57.764Z,21.75
2018-10-18T12:18:57.758Z,21.99
2018-10-18T12:19:57.717Z,22.07
2018-10-18T12:20:57.648Z,22.02
2018-10-18T12:21:57.595Z,22.06
2018-10-18T12:22:57.577Z,21.96
2018-10-18T12:23:57.506Z,21.89
2018-10-18T12:24:57.503Z,21.76
2018-10-18T12:25:57.444Z,21.80
2018-10-18T12:26:57.473Z,21.77
2018-10-18T12:27:57.345Z,21.79
2018-10-18T12:28:57.376Z,21.77
2018-10-18T12:29:57.257Z,21.92
2018-10-18T12:30:57.211Z,21.82
2018-10-18T12:31:57.179Z,21.93
2018-10-18T12:32:57.167Z,21.99
2018-10-18T12:33:57.120Z,22.13
2018-10-18T12:34:57.074Z,22.30
2018-10-18T12:35:56.999Z,22.36
2018-10-18T12:36:56.964Z,22.35
2018-10-18T12:37:57.004Z,22.36
2018-10-18T12:38:56.875Z,22.28
2018-10-18T12:39:56.884Z,22.17
2018-10-18T12:40:56.836Z,22.14
2018-10-18T12:41:56.802Z,22.07
2018-10-18T12:42:56.703Z,22.10
2018-10-18T12:43:56.718Z,22.04
2018-10-18T12:44:56.677Z,22.00
2018-10-18T12:45:56.636Z,22.00
2018-10-18T12:46:56.541Z,21.96
2018-10-18T12:47:56.546Z,21.83
2018-10-18T12:48:56.463Z,21.77
2018-10-18T12:49:56.483Z,21.66
2018-10-18T12:50:56.373Z,21.70
2018-10-18T12:51:56.358Z,21.57
2018-10-18T12:52:56.283Z,21.40
2018-10-18T12:53:56.297Z,21.37
2018-10-18T12:54:56.198Z,21.37
2018-10-18T12:55:56.199Z,21.33
2018-10-18T12:56:56.157Z,21.35
2018-10-18T12:57:56.101Z,21.42
2018-10-18T12:58:56.033Z,21.32
2018-10-18T12:59:56.018Z,21.45
2018-10-18T13:00:55.975Z,21.55
2018-10-18T13:01:55.986Z,21.66